sensor_id;sensor_type;location;lat;lon;timestamp;P1;durP1;ratioP1;P2;durP2;ratioP2
73733;SDS011;62039;50.000;9.064;2022-09-27T00:00:05;0.40;;;0.40;;
73733;SDS011;62039;50.000;9.064;2022-09-27T00:02:32;1.03;;;0.47;;
73733;SDS011;62039;50.000;9.064;2022-09-27T00:04:59;0.40;;;0.40;;
73733;SDS011;62039;50.000;9.064;2022-09-27T00:07:25;2.47;;;0.40;;
73733;SDS011;62039;50.000;9.064;2022-09-27T00:09:52;0.33;;;0.30;;
73733;SDS011;62039;50.000;9.064;2022-09-27T00:12:20;0.40;;;0.40;;
73733;SDS011;62039;50.000;9.064;2022-09-27T00:14:46;1.00;;;0.30;;
73733;SDS011;62039;50.000;9.064;2022-09-27T00:17:13;0.40;;;0.40;;
73733;SDS011;62039;50.000;9.064;2022-09-27T00:19:39;1.13;;;0.43;;
73733;SDS011;62039;50.000;9.064;2022-09-27T00:22:06;0.60;;;0.60;;
73733;SDS011;62039;50.000;9.064;2022-09-27T00:24:33;0.60;;;0.40;;
73733;SDS011;62039;50.000;9.064;2022-09-27T00:26:59;0.30;;;0.30;;
73733;SDS011;62039;50.000;9.064;2022-09-27T00:29:27;0.40;;;0.40;;
73733;SDS011;62039;50.000;9.064;2022-09-27T00:31:54;0.40;;;0.40;;
73733;SDS011;62039;50.000;9.064;2022-09-27T00:34:21;0.60;;;0.50;;
73733;SDS011;62039;50.000;9.064;2022-09-27T00:36:49;0.67;;;0.40;;
73733;SDS011;62039;50.000;9.064;2022-09-27T00:39:17;0.40;;;0.40;;
73733;SDS011;62039;50.000;9.064;2022-09-27T00:41:44;0.50;;;0.40;;
73733;SDS011;62039;50.000;9.064;2022-09-27T00:47:23;0.93;;;0.43;;
73733;SDS011;62039;50.000;9.064;2022-09-27T00:49:56;0.60;;;0.47;;
73733;SDS011;62039;50.000;9.064;2022-09-27T00:52:32;0.40;;;0.40;;
73733;SDS011;62039;50.000;9.064;2022-09-27T00:55:05;0.40;;;0.40;;
73733;SDS011;62039;50.000;9.064;2022-09-27T00:57:35;0.93;;;0.50;;
73733;SDS011;62039;50.000;9.064;2022-09-27T01:00:04;0.60;;;0.40;;
73733;SDS011;62039;50.000;9.064;2022-09-27T01:02:33;0.67;;;0.30;;
73733;SDS011;62039;50.000;9.064;2022-09-27T01:05:01;0.60;;;0.40;;
73733;SDS011;62039;50.000;9.064;2022-09-27T01:07:29;0.97;;;0.50;;
73733;SDS011;62039;50.000;9.064;2022-09-27T01:09:55;0.83;;;0.40;;
73733;SDS011;62039;50.000;9.064;2022-09-27T01:12:24;0.30;;;0.30;;
73733;SDS011;62039;50.000;9.064;2022-09-27T01:15:00;0.50;;;0.50;;
73733;SDS011;62039;50.000;9.064;2022-09-27T01:17:39;0.30;;;0.30;;
73733;SDS011;62039;50.000;9.064;2022-09-27T01:20:20;1.00;;;0.50;;
73733;SDS011;62039;50.000;9.064;2022-09-27T01:23:13;0.40;;;0.40;;
73733;SDS011;62039;50.000;9.064;2022-09-27T01:25:56;1.10;;;0.40;;
73733;SDS011;62039;50.000;9.064;2022-09-27T01:28:36;0.50;;;0.47;;
73733;SDS011;62039;50.000;9.064;2022-09-27T01:31:15;0.43;;;0.43;;
73733;SDS011;62039;50.000;9.064;2022-09-27T01:33:47;0.60;;;0.50;;
73733;SDS011;62039;50.000;9.064;2022-09-27T01:36:26;0.50;;;0.50;;
73733;SDS011;62039;50.000;9.064;2022-09-27T01:39:00;0.40;;;0.40;;
73733;SDS011;62039;50.000;9.064;2022-09-27T01:41:34;1.83;;;0.60;;
73733;SDS011;62039;50.000;9.064;2022-09-27T01:44:05;1.17;;;0.50;;
73733;SDS011;62039;50.000;9.064;2022-09-27T01:46:38;0.60;;;0.60;;
73733;SDS011;62039;50.000;9.064;2022-09-27T01:49:07;0.43;;;0.43;;
73733;SDS011;62039;50.000;9.064;2022-09-27T01:51:38;1.30;;;0.60;;
73733;SDS011;62039;50.000;9.064;2022-09-27T01:54:10;1.07;;;0.60;;
73733;SDS011;62039;50.000;9.064;2022-09-27T01:56:41;0.47;;;0.47;;
73733;SDS011;62039;50.000;9.064;2022-09-27T01:59:12;0.93;;;0.70;;
73733;SDS011;62039;50.000;9.064;2022-09-27T02:01:42;0.67;;;0.50;;
73733;SDS011;62039;50.000;9.064;2022-09-27T02:04:14;1.10;;;0.60;;
73733;SDS011;62039;50.000;9.064;2022-09-27T02:06:46;1.20;;;0.60;;
73733;SDS011;62039;50.000;9.064;2022-09-27T02:09:17;0.60;;;0.53;;
73733;SDS011;62039;50.000;9.064;2022-09-27T02:11:49;0.80;;;0.60;;
73733;SDS011;62039;50.000;9.064;2022-09-27T02:14:22;0.70;;;0.60;;
73733;SDS011;62039;50.000;9.064;2022-09-27T02:16:53;0.63;;;0.60;;
73733;SDS011;62039;50.000;9.064;2022-09-27T02:19:27;1.00;;;0.60;;
73733;SDS011;62039;50.000;9.064;2022-09-27T02:22:01;0.90;;;0.60;;
73733;SDS011;62039;50.000;9.064;2022-09-27T02:24:38;1.10;;;0.60;;
73733;SDS011;62039;50.000;9.064;2022-09-27T02:27:10;2.90;;;0.80;;
73733;SDS011;62039;50.000;9.064;2022-09-27T02:29:41;0.50;;;0.50;;
73733;SDS011;62039;50.000;9.064;2022-09-27T02:32:13;0.80;;;0.80;;
73733;SDS011;62039;50.000;9.064;2022-09-27T02:34:40;1.57;;;0.80;;
73733;SDS011;62039;50.000;9.064;2022-09-27T02:37:09;1.00;;;0.80;;
73733;SDS011;62039;50.000;9.064;2022-09-27T02:39:36;1.70;;;0.73;;
73733;SDS011;62039;50.000;9.064;2022-09-27T02:42:03;1.47;;;1.00;;
73733;SDS011;62039;50.000;9.064;2022-09-27T02:44:30;1.20;;;0.80;;
73733;SDS011;62039;50.000;9.064;2022-09-27T02:47:07;2.30;;;1.03;;
73733;SDS011;62039;50.000;9.064;2022-09-27T02:49:53;1.47;;;0.90;;
73733;SDS011;62039;50.000;9.064;2022-09-27T02:52:32;0.83;;;0.80;;
73733;SDS011;62039;50.000;9.064;2022-09-27T02:55:09;1.30;;;0.80;;
73733;SDS011;62039;50.000;9.064;2022-09-27T02:57:47;1.33;;;0.70;;
73733;SDS011;62039;50.000;9.064;2022-09-27T03:00:25;1.67;;;0.90;;
73733;SDS011;62039;50.000;9.064;2022-09-27T03:03:03;1.63;;;1.00;;
73733;SDS011;62039;50.000;9.064;2022-09-27T03:05:36;1.47;;;0.90;;
73733;SDS011;62039;50.000;9.064;2022-09-27T03:08:06;0.80;;;0.80;;
73733;SDS011;62039;50.000;9.064;2022-09-27T03:10:33;3.13;;;1.30;;
73733;SDS011;62039;50.000;9.064;2022-09-27T03:13:00;1.47;;;0.90;;
73733;SDS011;62039;50.000;9.064;2022-09-27T03:15:27;1.37;;;0.77;;
73733;SDS011;62039;50.000;9.064;2022-09-27T03:17:53;1.10;;;1.00;;
73733;SDS011;62039;50.000;9.064;2022-09-27T03:20:21;1.20;;;0.70;;
73733;SDS011;62039;50.000;9.064;2022-09-27T03:22:48;1.33;;;0.70;;
73733;SDS011;62039;50.000;9.064;2022-09-27T03:25:14;0.80;;;0.60;;
73733;SDS011;62039;50.000;9.064;2022-09-27T03:27:42;1.13;;;0.77;;
73733;SDS011;62039;50.000;9.064;2022-09-27T03:30:09;1.07;;;0.70;;
73733;SDS011;62039;50.000;9.064;2022-09-27T03:32:40;1.97;;;1.00;;
73733;SDS011;62039;50.000;9.064;2022-09-27T03:35:10;1.20;;;0.73;;
73733;SDS011;62039;50.000;9.064;2022-09-27T03:37:39;0.97;;;0.80;;
73733;SDS011;62039;50.000;9.064;2022-09-27T03:40:06;1.30;;;0.77;;
73733;SDS011;62039;50.000;9.064;2022-09-27T03:42:33;0.83;;;0.80;;
73733;SDS011;62039;50.000;9.064;2022-09-27T03:45:00;1.43;;;0.90;;
73733;SDS011;62039;50.000;9.064;2022-09-27T03:47:26;1.37;;;0.77;;
73733;SDS011;62039;50.000;9.064;2022-09-27T03:49:53;0.60;;;0.50;;
73733;SDS011;62039;50.000;9.064;2022-09-27T03:52:19;0.63;;;0.60;;
73733;SDS011;62039;50.000;9.064;2022-09-27T03:54:47;0.60;;;0.50;;
73733;SDS011;62039;50.000;9.064;2022-09-27T03:57:14;1.00;;;0.67;;
73733;SDS011;62039;50.000;9.064;2022-09-27T03:59:41;1.30;;;0.80;;
73733;SDS011;62039;50.000;9.064;2022-09-27T04:02:07;1.00;;;0.73;;
73733;SDS011;62039;50.000;9.064;2022-09-27T04:04:34;1.13;;;0.67;;
73733;SDS011;62039;50.000;9.064;2022-09-27T04:07:01;1.27;;;0.80;;
73733;SDS011;62039;50.000;9.064;2022-09-27T04:09:27;1.90;;;0.80;;
73733;SDS011;62039;50.000;9.064;2022-09-27T04:11:55;1.13;;;0.80;;
73733;SDS011;62039;50.000;9.064;2022-09-27T04:14:22;1.07;;;0.70;;
73733;SDS011;62039;50.000;9.064;2022-09-27T04:16:48;2.00;;;0.80;;
73733;SDS011;62039;50.000;9.064;2022-09-27T04:19:15;2.50;;;0.90;;
73733;SDS011;62039;50.000;9.064;2022-09-27T04:21:42;1.60;;;0.73;;
73733;SDS011;62039;50.000;9.064;2022-09-27T04:24:08;0.93;;;0.60;;
73733;SDS011;62039;50.000;9.064;2022-09-27T04:26:35;0.77;;;0.70;;
73733;SDS011;62039;50.000;9.064;2022-09-27T04:29:03;0.93;;;0.73;;
73733;SDS011;62039;50.000;9.064;2022-09-27T04:31:29;0.80;;;0.63;;
73733;SDS011;62039;50.000;9.064;2022-09-27T04:33:56;0.50;;;0.50;;
73733;SDS011;62039;50.000;9.064;2022-09-27T04:36:22;1.60;;;0.57;;
73733;SDS011;62039;50.000;9.064;2022-09-27T04:38:51;1.83;;;0.80;;
73733;SDS011;62039;50.000;9.064;2022-09-27T04:41:18;1.07;;;0.60;;
73733;SDS011;62039;50.000;9.064;2022-09-27T04:43:45;1.33;;;0.70;;
73733;SDS011;62039;50.000;9.064;2022-09-27T04:46:13;2.00;;;0.77;;
73733;SDS011;62039;50.000;9.064;2022-09-27T04:48:39;0.63;;;0.50;;
73733;SDS011;62039;50.000;9.064;2022-09-27T04:51:06;1.03;;;0.67;;
73733;SDS011;62039;50.000;9.064;2022-09-27T04:53:34;1.10;;;0.70;;
73733;SDS011;62039;50.000;9.064;2022-09-27T04:56:01;0.60;;;0.40;;
73733;SDS011;62039;50.000;9.064;2022-09-27T04:58:27;1.23;;;0.50;;
73733;SDS011;62039;50.000;9.064;2022-09-27T05:00:54;0.47;;;0.47;;
73733;SDS011;62039;50.000;9.064;2022-09-27T05:03:22;1.47;;;0.53;;
73733;SDS011;62039;50.000;9.064;2022-09-27T05:05:48;1.57;;;0.50;;
73733;SDS011;62039;50.000;9.064;2022-09-27T05:08:15;0.67;;;0.50;;
73733;SDS011;62039;50.000;9.064;2022-09-27T05:10:42;0.80;;;0.50;;
73733;SDS011;62039;50.000;9.064;2022-09-27T05:13:08;1.43;;;0.60;;
73733;SDS011;62039;50.000;9.064;2022-09-27T05:15:35;0.70;;;0.57;;
73733;SDS011;62039;50.000;9.064;2022-09-27T05:18:01;1.07;;;0.40;;
73733;SDS011;62039;50.000;9.064;2022-09-27T05:20:29;1.60;;;0.77;;
73733;SDS011;62039;50.000;9.064;2022-09-27T05:22:56;1.03;;;0.50;;
73733;SDS011;62039;50.000;9.064;2022-09-27T05:25:22;0.63;;;0.60;;
73733;SDS011;62039;50.000;9.064;2022-09-27T05:27:49;0.63;;;0.63;;
73733;SDS011;62039;50.000;9.064;2022-09-27T05:30:16;1.17;;;0.50;;
73733;SDS011;62039;50.000;9.064;2022-09-27T05:32:43;1.10;;;0.50;;
73733;SDS011;62039;50.000;9.064;2022-09-27T05:35:11;1.63;;;0.90;;
73733;SDS011;62039;50.000;9.064;2022-09-27T05:37:39;0.50;;;0.40;;
73733;SDS011;62039;50.000;9.064;2022-09-27T05:40:06;0.57;;;0.40;;
73733;SDS011;62039;50.000;9.064;2022-09-27T05:42:53;0.60;;;0.53;;
73733;SDS011;62039;50.000;9.064;2022-09-27T05:45:21;0.60;;;0.40;;
73733;SDS011;62039;50.000;9.064;2022-09-27T05:47:52;0.50;;;0.50;;
73733;SDS011;62039;50.000;9.064;2022-09-27T05:50:19;0.40;;;0.40;;
73733;SDS011;62039;50.000;9.064;2022-09-27T05:52:47;1.23;;;0.50;;
73733;SDS011;62039;50.000;9.064;2022-09-27T05:55:14;0.40;;;0.40;;
73733;SDS011;62039;50.000;9.064;2022-09-27T05:57:40;6.70;;;0.60;;
73733;SDS011;62039;50.000;9.064;2022-09-27T06:00:07;0.40;;;0.40;;
73733;SDS011;62039;50.000;9.064;2022-09-27T06:02:34;0.50;;;0.50;;
73733;SDS011;62039;50.000;9.064;2022-09-27T06:05:01;0.67;;;0.43;;
73733;SDS011;62039;50.000;9.064;2022-09-27T06:07:28;0.47;;;0.40;;
73733;SDS011;62039;50.000;9.064;2022-09-27T06:09:57;0.50;;;0.47;;
73733;SDS011;62039;50.000;9.064;2022-09-27T06:12:23;1.00;;;0.50;;
73733;SDS011;62039;50.000;9.064;2022-09-27T06:14:50;0.40;;;0.40;;
73733;SDS011;62039;50.000;9.064;2022-09-27T06:17:17;0.40;;;0.40;;
73733;SDS011;62039;50.000;9.064;2022-09-27T06:19:44;0.47;;;0.47;;
73733;SDS011;62039;50.000;9.064;2022-09-27T06:22:10;1.77;;;0.60;;
73733;SDS011;62039;50.000;9.064;2022-09-27T06:24:37;0.83;;;0.50;;
73733;SDS011;62039;50.000;9.064;2022-09-27T06:27:05;0.37;;;0.37;;
73733;SDS011;62039;50.000;9.064;2022-09-27T06:29:31;0.60;;;0.40;;
73733;SDS011;62039;50.000;9.064;2022-09-27T06:31:58;0.37;;;0.37;;
73733;SDS011;62039;50.000;9.064;2022-09-27T06:34:25;1.03;;;0.63;;
73733;SDS011;62039;50.000;9.064;2022-09-27T06:36:51;0.40;;;0.40;;
73733;SDS011;62039;50.000;9.064;2022-09-27T06:39:18;1.20;;;0.60;;
73733;SDS011;62039;50.000;9.064;2022-09-27T06:41:44;0.93;;;0.43;;
73733;SDS011;62039;50.000;9.064;2022-09-27T06:44:12;0.40;;;0.40;;
73733;SDS011;62039;50.000;9.064;2022-09-27T06:46:41;1.47;;;0.73;;
73733;SDS011;62039;50.000;9.064;2022-09-27T06:49:08;4.43;;;0.70;;
73733;SDS011;62039;50.000;9.064;2022-09-27T06:51:34;0.40;;;0.40;;
73733;SDS011;62039;50.000;9.064;2022-09-27T06:54:01;1.30;;;0.50;;
73733;SDS011;62039;50.000;9.064;2022-09-27T06:56:27;1.23;;;0.50;;
73733;SDS011;62039;50.000;9.064;2022-09-27T06:58:54;0.90;;;0.43;;
73733;SDS011;62039;50.000;9.064;2022-09-27T07:01:22;0.67;;;0.50;;
73733;SDS011;62039;50.000;9.064;2022-09-27T07:03:52;0.83;;;0.40;;
73733;SDS011;62039;50.000;9.064;2022-09-27T07:06:20;0.40;;;0.40;;
73733;SDS011;62039;50.000;9.064;2022-09-27T07:08:48;0.47;;;0.47;;
73733;SDS011;62039;50.000;9.064;2022-09-27T07:11:15;1.30;;;0.43;;
73733;SDS011;62039;50.000;9.064;2022-09-27T07:13:42;0.40;;;0.30;;
73733;SDS011;62039;50.000;9.064;2022-09-27T07:16:09;0.30;;;0.23;;
73733;SDS011;62039;50.000;9.064;2022-09-27T07:18:38;0.40;;;0.40;;
73733;SDS011;62039;50.000;9.064;2022-09-27T07:21:05;0.30;;;0.30;;
73733;SDS011;62039;50.000;9.064;2022-09-27T07:23:31;0.40;;;0.40;;
73733;SDS011;62039;50.000;9.064;2022-09-27T07:25:59;0.73;;;0.43;;
73733;SDS011;62039;50.000;9.064;2022-09-27T07:28:26;0.77;;;0.40;;
73733;SDS011;62039;50.000;9.064;2022-09-27T07:30:53;0.60;;;0.50;;
73733;SDS011;62039;50.000;9.064;2022-09-27T07:33:20;1.00;;;0.50;;
73733;SDS011;62039;50.000;9.064;2022-09-27T07:35:48;0.70;;;0.50;;
73733;SDS011;62039;50.000;9.064;2022-09-27T07:38:15;1.37;;;0.40;;
73733;SDS011;62039;50.000;9.064;2022-09-27T07:40:41;0.77;;;0.50;;
73733;SDS011;62039;50.000;9.064;2022-09-27T07:43:08;0.40;;;0.40;;
73733;SDS011;62039;50.000;9.064;2022-09-27T07:45:35;1.10;;;0.40;;
73733;SDS011;62039;50.000;9.064;2022-09-27T07:48:03;0.30;;;0.30;;
73733;SDS011;62039;50.000;9.064;2022-09-27T07:50:30;0.43;;;0.40;;
73733;SDS011;62039;50.000;9.064;2022-09-27T07:52:58;0.33;;;0.33;;
73733;SDS011;62039;50.000;9.064;2022-09-27T07:55:24;0.40;;;0.40;;
73733;SDS011;62039;50.000;9.064;2022-09-27T07:57:51;0.37;;;0.30;;
73733;SDS011;62039;50.000;9.064;2022-09-27T08:00:26;0.93;;;0.40;;
73733;SDS011;62039;50.000;9.064;2022-09-27T08:02:53;0.30;;;0.30;;
73733;SDS011;62039;50.000;9.064;2022-09-27T08:05:19;0.30;;;0.30;;
73733;SDS011;62039;50.000;9.064;2022-09-27T08:07:46;0.33;;;0.33;;
73733;SDS011;62039;50.000;9.064;2022-09-27T08:10:14;0.57;;;0.40;;
73733;SDS011;62039;50.000;9.064;2022-09-27T08:12:41;0.33;;;0.33;;
73733;SDS011;62039;50.000;9.064;2022-09-27T08:15:09;0.40;;;0.40;;
73733;SDS011;62039;50.000;9.064;2022-09-27T08:17:36;0.77;;;0.40;;
73733;SDS011;62039;50.000;9.064;2022-09-27T08:20:02;0.40;;;0.40;;
73733;SDS011;62039;50.000;9.064;2022-09-27T08:22:29;1.07;;;0.40;;
73733;SDS011;62039;50.000;9.064;2022-09-27T08:24:56;0.73;;;0.50;;
73733;SDS011;62039;50.000;9.064;2022-09-27T08:27:24;0.60;;;0.50;;
73733;SDS011;62039;50.000;9.064;2022-09-27T08:29:50;0.60;;;0.60;;
73733;SDS011;62039;50.000;9.064;2022-09-27T08:32:17;0.50;;;0.40;;
73733;SDS011;62039;50.000;9.064;2022-09-27T08:34:48;0.40;;;0.40;;
73733;SDS011;62039;50.000;9.064;2022-09-27T08:37:15;0.30;;;0.30;;
73733;SDS011;62039;50.000;9.064;2022-09-27T08:39:41;0.50;;;0.50;;
73733;SDS011;62039;50.000;9.064;2022-09-27T08:42:14;0.67;;;0.30;;
73733;SDS011;62039;50.000;9.064;2022-09-27T08:44:52;1.27;;;0.40;;
73733;SDS011;62039;50.000;9.064;2022-09-27T08:47:29;0.20;;;0.20;;
73733;SDS011;62039;50.000;9.064;2022-09-27T08:50:01;0.57;;;0.40;;
73733;SDS011;62039;50.000;9.064;2022-09-27T08:52:30;0.87;;;0.40;;
73733;SDS011;62039;50.000;9.064;2022-09-27T08:55:02;0.80;;;0.40;;
73733;SDS011;62039;50.000;9.064;2022-09-27T08:57:35;0.40;;;0.37;;
73733;SDS011;62039;50.000;9.064;2022-09-27T09:00:04;0.60;;;0.40;;
73733;SDS011;62039;50.000;9.064;2022-09-27T09:02:33;0.60;;;0.50;;
73733;SDS011;62039;50.000;9.064;2022-09-27T09:05:02;0.30;;;0.30;;
73733;SDS011;62039;50.000;9.064;2022-09-27T09:07:41;1.27;;;0.50;;
73733;SDS011;62039;50.000;9.064;2022-09-27T09:10:24;0.30;;;0.30;;
73733;SDS011;62039;50.000;9.064;2022-09-27T09:12:59;0.50;;;0.50;;
73733;SDS011;62039;50.000;9.064;2022-09-27T09:15:37;1.13;;;0.47;;
73733;SDS011;62039;50.000;9.064;2022-09-27T09:18:13;0.63;;;0.40;;
73733;SDS011;62039;50.000;9.064;2022-09-27T09:20:54;0.60;;;0.60;;
73733;SDS011;62039;50.000;9.064;2022-09-27T09:23:47;1.20;;;0.83;;
73733;SDS011;62039;50.000;9.064;2022-09-27T09:26:26;1.47;;;0.70;;
73733;SDS011;62039;50.000;9.064;2022-09-27T09:29:03;2.03;;;0.70;;
73733;SDS011;62039;50.000;9.064;2022-09-27T09:31:41;1.03;;;0.40;;
73733;SDS011;62039;50.000;9.064;2022-09-27T09:34:14;0.40;;;0.40;;
73733;SDS011;62039;50.000;9.064;2022-09-27T09:36:46;1.10;;;0.50;;
73733;SDS011;62039;50.000;9.064;2022-09-27T09:39:18;0.70;;;0.63;;
73733;SDS011;62039;50.000;9.064;2022-09-27T09:41:54;0.40;;;0.40;;
73733;SDS011;62039;50.000;9.064;2022-09-27T09:44:29;0.43;;;0.30;;
73733;SDS011;62039;50.000;9.064;2022-09-27T09:47:01;1.10;;;0.47;;
73733;SDS011;62039;50.000;9.064;2022-09-27T09:49:29;1.00;;;0.60;;
73733;SDS011;62039;50.000;9.064;2022-09-27T09:52:02;1.60;;;0.37;;
73733;SDS011;62039;50.000;9.064;2022-09-27T09:54:35;0.93;;;0.50;;
73733;SDS011;62039;50.000;9.064;2022-09-27T09:57:05;0.40;;;0.40;;
73733;SDS011;62039;50.000;9.064;2022-09-27T09:59:39;2.53;;;0.80;;
73733;SDS011;62039;50.000;9.064;2022-09-27T10:02:16;0.37;;;0.37;;
73733;SDS011;62039;50.000;9.064;2022-09-27T10:04:48;0.47;;;0.40;;
73733;SDS011;62039;50.000;9.064;2022-09-27T10:07:15;0.90;;;0.37;;
73733;SDS011;62039;50.000;9.064;2022-09-27T10:09:47;0.50;;;0.37;;
73733;SDS011;62039;50.000;9.064;2022-09-27T10:12:14;1.13;;;0.40;;
73733;SDS011;62039;50.000;9.064;2022-09-27T10:14:41;0.80;;;0.60;;
73733;SDS011;62039;50.000;9.064;2022-09-27T10:17:11;2.17;;;1.27;;
73733;SDS011;62039;50.000;9.064;2022-09-27T10:19:43;3.17;;;0.60;;
73733;SDS011;62039;50.000;9.064;2022-09-27T10:22:13;0.50;;;0.50;;
73733;SDS011;62039;50.000;9.064;2022-09-27T10:24:52;0.80;;;0.40;;
73733;SDS011;62039;50.000;9.064;2022-09-27T10:27:21;0.30;;;0.30;;
73733;SDS011;62039;50.000;9.064;2022-09-27T10:29:54;0.33;;;0.33;;
73733;SDS011;62039;50.000;9.064;2022-09-27T10:32:23;0.60;;;0.40;;
73733;SDS011;62039;50.000;9.064;2022-09-27T10:34:52;0.47;;;0.37;;
73733;SDS011;62039;50.000;9.064;2022-09-27T10:37:20;0.40;;;0.40;;
73733;SDS011;62039;50.000;9.064;2022-09-27T10:39:48;0.47;;;0.37;;
73733;SDS011;62039;50.000;9.064;2022-09-27T10:42:22;0.30;;;0.30;;
73733;SDS011;62039;50.000;9.064;2022-09-27T10:44:57;1.73;;;0.30;;
73733;SDS011;62039;50.000;9.064;2022-09-27T10:47:25;0.93;;;0.50;;
73733;SDS011;62039;50.000;9.064;2022-09-27T10:49:52;0.50;;;0.47;;
73733;SDS011;62039;50.000;9.064;2022-09-27T10:52:29;0.97;;;0.47;;
73733;SDS011;62039;50.000;9.064;2022-09-27T10:54:56;0.37;;;0.30;;
73733;SDS011;62039;50.000;9.064;2022-09-27T10:57:25;0.73;;;0.40;;
73733;SDS011;62039;50.000;9.064;2022-09-27T10:59:54;0.57;;;0.40;;
73733;SDS011;62039;50.000;9.064;2022-09-27T11:02:23;1.70;;;0.63;;
73733;SDS011;62039;50.000;9.064;2022-09-27T11:05:04;0.70;;;0.40;;
73733;SDS011;62039;50.000;9.064;2022-09-27T11:07:46;0.40;;;0.33;;
73733;SDS011;62039;50.000;9.064;2022-09-27T11:10:19;0.23;;;0.23;;
73733;SDS011;62039;50.000;9.064;2022-09-27T11:13:01;0.47;;;0.40;;
73733;SDS011;62039;50.000;9.064;2022-09-27T11:15:31;0.30;;;0.30;;
73733;SDS011;62039;50.000;9.064;2022-09-27T11:18:08;0.43;;;0.40;;
73733;SDS011;62039;50.000;9.064;2022-09-27T11:20:44;0.70;;;0.30;;
73733;SDS011;62039;50.000;9.064;2022-09-27T11:23:20;0.80;;;0.40;;
73733;SDS011;62039;50.000;9.064;2022-09-27T11:26:01;0.43;;;0.40;;
73733;SDS011;62039;50.000;9.064;2022-09-27T11:28:45;0.37;;;0.33;;
73733;SDS011;62039;50.000;9.064;2022-09-27T11:31:19;0.30;;;0.30;;
73733;SDS011;62039;50.000;9.064;2022-09-27T11:33:59;0.40;;;0.40;;
73733;SDS011;62039;50.000;9.064;2022-09-27T11:36:44;0.60;;;0.30;;
73733;SDS011;62039;50.000;9.064;2022-09-27T11:39:26;0.20;;;0.20;;
73733;SDS011;62039;50.000;9.064;2022-09-27T11:42:05;0.40;;;0.40;;
73733;SDS011;62039;50.000;9.064;2022-09-27T11:44:49;0.23;;;0.23;;
73733;SDS011;62039;50.000;9.064;2022-09-27T11:47:43;0.30;;;0.30;;
73733;SDS011;62039;50.000;9.064;2022-09-27T11:53:08;0.30;;;0.30;;
73733;SDS011;62039;50.000;9.064;2022-09-27T11:55:48;0.30;;;0.30;;
73733;SDS011;62039;50.000;9.064;2022-09-27T11:58:24;0.37;;;0.37;;
73733;SDS011;62039;50.000;9.064;2022-09-27T12:00:59;0.60;;;0.40;;
73733;SDS011;62039;50.000;9.064;2022-09-27T12:03:48;0.73;;;0.40;;
73733;SDS011;62039;50.000;9.064;2022-09-27T12:06:27;0.40;;;0.37;;
73733;SDS011;62039;50.000;9.064;2022-09-27T12:09:02;0.83;;;0.50;;
73733;SDS011;62039;50.000;9.064;2022-09-27T12:11:34;1.13;;;0.50;;
73733;SDS011;62039;50.000;9.064;2022-09-27T12:14:05;0.70;;;0.40;;
73733;SDS011;62039;50.000;9.064;2022-09-27T12:16:37;0.50;;;0.40;;
73733;SDS011;62039;50.000;9.064;2022-09-27T12:19:08;0.83;;;0.50;;
73733;SDS011;62039;50.000;9.064;2022-09-27T12:21:43;0.77;;;0.60;;
73733;SDS011;62039;50.000;9.064;2022-09-27T12:24:13;0.77;;;0.50;;
73733;SDS011;62039;50.000;9.064;2022-09-27T12:26:44;0.70;;;0.40;;
73733;SDS011;62039;50.000;9.064;2022-09-27T12:29:14;0.30;;;0.30;;
73733;SDS011;62039;50.000;9.064;2022-09-27T12:31:46;0.50;;;0.50;;
73733;SDS011;62039;50.000;9.064;2022-09-27T12:34:21;0.77;;;0.33;;
73733;SDS011;62039;50.000;9.064;2022-09-27T12:36:58;0.80;;;0.40;;
73733;SDS011;62039;50.000;9.064;2022-09-27T12:39:32;1.03;;;0.40;;
73733;SDS011;62039;50.000;9.064;2022-09-27T12:42:09;0.70;;;0.60;;
73733;SDS011;62039;50.000;9.064;2022-09-27T12:44:41;1.37;;;0.57;;
73733;SDS011;62039;50.000;9.064;2022-09-27T12:47:19;0.70;;;0.53;;
73733;SDS011;62039;50.000;9.064;2022-09-27T12:49:58;1.97;;;0.67;;
73733;SDS011;62039;50.000;9.064;2022-09-27T12:52:32;0.47;;;0.40;;
73733;SDS011;62039;50.000;9.064;2022-09-27T12:58:11;1.13;;;0.40;;
73733;SDS011;62039;50.000;9.064;2022-09-27T13:00:51;0.60;;;0.40;;
73733;SDS011;62039;50.000;9.064;2022-09-27T13:06:27;0.70;;;0.40;;
73733;SDS011;62039;50.000;9.064;2022-09-27T13:12:15;0.50;;;0.40;;
73733;SDS011;62039;50.000;9.064;2022-09-27T13:14:53;0.90;;;0.57;;
73733;SDS011;62039;50.000;9.064;2022-09-27T13:17:31;0.87;;;0.70;;
73733;SDS011;62039;50.000;9.064;2022-09-27T13:26:40;0.53;;;0.47;;
73733;SDS011;62039;50.000;9.064;2022-09-27T13:29:19;0.50;;;0.40;;
73733;SDS011;62039;50.000;9.064;2022-09-27T13:32:00;0.97;;;0.63;;
73733;SDS011;62039;50.000;9.064;2022-09-27T13:34:46;1.07;;;0.60;;
73733;SDS011;62039;50.000;9.064;2022-09-27T13:40:09;1.33;;;0.57;;
73733;SDS011;62039;50.000;9.064;2022-09-27T13:42:47;0.40;;;0.40;;
73733;SDS011;62039;50.000;9.064;2022-09-27T13:45:21;0.77;;;0.50;;
73733;SDS011;62039;50.000;9.064;2022-09-27T13:47:50;0.73;;;0.60;;
73733;SDS011;62039;50.000;9.064;2022-09-27T13:50:21;0.73;;;0.53;;
73733;SDS011;62039;50.000;9.064;2022-09-27T13:52:56;0.70;;;0.57;;
73733;SDS011;62039;50.000;9.064;2022-09-27T13:55:38;0.50;;;0.50;;
73733;SDS011;62039;50.000;9.064;2022-09-27T13:58:12;0.93;;;0.80;;
73733;SDS011;62039;50.000;9.064;2022-09-27T14:00:49;2.10;;;1.70;;
73733;SDS011;62039;50.000;9.064;2022-09-27T14:06:18;1.53;;;1.20;;
73733;SDS011;62039;50.000;9.064;2022-09-27T14:08:48;1.00;;;0.90;;
73733;SDS011;62039;50.000;9.064;2022-09-27T14:11:17;1.13;;;0.60;;
73733;SDS011;62039;50.000;9.064;2022-09-27T14:13:49;0.63;;;0.53;;
73733;SDS011;62039;50.000;9.064;2022-09-27T14:16:17;1.30;;;0.70;;
73733;SDS011;62039;50.000;9.064;2022-09-27T14:18:45;0.80;;;0.50;;
73733;SDS011;62039;50.000;9.064;2022-09-27T14:21:15;0.60;;;0.43;;
73733;SDS011;62039;50.000;9.064;2022-09-27T14:23:52;0.73;;;0.50;;
73733;SDS011;62039;50.000;9.064;2022-09-27T14:26:21;1.03;;;0.50;;
73733;SDS011;62039;50.000;9.064;2022-09-27T14:28:50;0.60;;;0.60;;
73733;SDS011;62039;50.000;9.064;2022-09-27T14:31:18;0.57;;;0.50;;
73733;SDS011;62039;50.000;9.064;2022-09-27T14:33:47;0.93;;;0.87;;
73733;SDS011;62039;50.000;9.064;2022-09-27T14:36:19;0.40;;;0.40;;
73733;SDS011;62039;50.000;9.064;2022-09-27T14:38:50;0.70;;;0.50;;
73733;SDS011;62039;50.000;9.064;2022-09-27T14:41:17;0.50;;;0.40;;
73733;SDS011;62039;50.000;9.064;2022-09-27T14:43:45;1.03;;;0.60;;
73733;SDS011;62039;50.000;9.064;2022-09-27T14:46:24;0.47;;;0.47;;
73733;SDS011;62039;50.000;9.064;2022-09-27T14:48:52;1.17;;;0.60;;
73733;SDS011;62039;50.000;9.064;2022-09-27T14:51:20;0.87;;;0.53;;
73733;SDS011;62039;50.000;9.064;2022-09-27T14:53:52;0.53;;;0.50;;
73733;SDS011;62039;50.000;9.064;2022-09-27T14:56:20;0.83;;;0.80;;
73733;SDS011;62039;50.000;9.064;2022-09-27T14:58:48;1.10;;;0.70;;
73733;SDS011;62039;50.000;9.064;2022-09-27T15:01:19;0.57;;;0.57;;
73733;SDS011;62039;50.000;9.064;2022-09-27T15:03:47;0.33;;;0.33;;
73733;SDS011;62039;50.000;9.064;2022-09-27T15:06:14;0.90;;;0.50;;
73733;SDS011;62039;50.000;9.064;2022-09-27T15:08:41;0.60;;;0.50;;
73733;SDS011;62039;50.000;9.064;2022-09-27T15:11:08;0.50;;;0.50;;
73733;SDS011;62039;50.000;9.064;2022-09-27T15:13:34;1.63;;;0.70;;
73733;SDS011;62039;50.000;9.064;2022-09-27T15:16:05;1.17;;;0.40;;
73733;SDS011;62039;50.000;9.064;2022-09-27T15:18:41;1.30;;;0.57;;
73733;SDS011;62039;50.000;9.064;2022-09-27T15:21:10;0.30;;;0.30;;
73733;SDS011;62039;50.000;9.064;2022-09-27T15:23:39;1.13;;;0.50;;
73733;SDS011;62039;50.000;9.064;2022-09-27T15:26:07;2.33;;;0.50;;
73733;SDS011;62039;50.000;9.064;2022-09-27T15:28:36;0.40;;;0.40;;
73733;SDS011;62039;50.000;9.064;2022-09-27T15:31:08;0.63;;;0.63;;
73733;SDS011;62039;50.000;9.064;2022-09-27T15:33:35;0.50;;;0.50;;
73733;SDS011;62039;50.000;9.064;2022-09-27T15:36:03;0.40;;;0.40;;